Mangnai, China
Current Conditions -  °F | °C
As of 8:00 PM on Sunday 25 Jan 2015 (Local Time) from ZWWW Reporting Station
Clear Clear  
Wind Chill: 16°   Ceiling: Unl
Heat Index: 16°   Visibility: 4mi
Dew Point: 12°   Wind: 2mph
Humidity: 86%   Direction: 300°WNW
Pressure: 30.56"   Gusts: NA
Location:  38.25°N, 90.85°E
Report Text: ZWWW 251200Z 30001MPS 7000 NSC M09/M11 Q1035 NOSIG
Loading
Personal Weather Stations






























Interactive Weather Map New forecast layout! Learn more

10-Day Weather Forecast

Advertisements
Track Severe Weather on mobile